Safi, Morocco

2:50 PM WEST on August 30, 2014 (GMT +0100)
Mogador | Change Station
CLOSE
Current Station
Airport
Location: Essaouira,
Elevation: 26 ft
Nearby Weather Stations

Elev 26 ft 31.52 °N, 9.78 °W | Updated 50 minutes ago

Clear
Clear
90 °F
Feels Like 90 °F
N
18
Wind Variable Wind from NE

Today
High -- | Low -- °F
--% Chance of Precip.
Yesterday
High -- | Low -- °F
Precip. -- in
7:10 AM 8:03 PM
Waxing Crescent, 22% visible
Pressure 29.95 in
Visibility 5.0 miles
Clouds
Heat Index 90 °F
Dew Point 63 °F
Humidity 40%
Rainfall 0.00 in
Snow Depth Not available.
UV Not available.
Pollen Not available.
Air Quality Not available.
Flu Activity Not available.
METAR GMMI 301300Z 04016KT 8000 NSC 32/17 Q1014 NOSIG

More Conditions Fewer Conditions

Pressure 29.95 in
Visibility 5.0 miles
Clouds
Heat Index 90 °F
Dew Point 63 °F
Humidity 40%
Rainfall 0.00 in
Snow Depth Not available.
UV Not available.
Pollen Not available.
Air Quality Not available.
Flu Activity Not available.
METAR GMMI 301300Z 04016KT 8000 NSC 32/17 Q1014 NOSIG

More Conditions Fewer Conditions

10-Day Weather Forecast

Almanac

Astronomy

Aug. 30, 2014 Rise Set
Actual Time 7:10 AM WEST 8:03 PM WEST
Civil Twilight 6:45 AM WEST 8:29 PM WEST
Nautical Twilight 6:15 AM WEST 8:58 PM WEST
Astronomical Twilight 5:45 AM WEST 9:28 PM WEST
Moon 11:27 AM WEST 10:48 PM WEST
Length of Visible Light 13h 43m
Length of Day
12h 53m
Tomorrow will be 1m 53s shorter.
Waxing Crescent, 22% of the Moon is Illuminated
Today
Waxing Crescent
Sep 2
First Quarter
Sep 8
Full
Sep 15
Last Quarter
Sep 24
New

Yesterday's Extremes

Country Highs Country Lows

Community

WunderPhotos

Upload Photos

1,748,510 photos uploaded!

WunderBlogs® & News

By Dr. Jeff Masters
Director of Meteorology, Weather Underground
By Kari Strenfel
Meteorologist, Weather Underground
By Christopher C. Burt
Weather Historian, Weather Underground
August 30, 2014
August 30, 2014
August 30, 2014

Nearby

Snow Depth

Not available.

Earthquake Activity

City Distance Mag. Time & Date
No recent earthquake activity has been reported nearby.
Minimum magnitude displayed is 2.5.

Coastal Water Temperatures

Place Temperature
No Stations Reporting

Nearby Weather Stations